Flight Track Log - Related Links

Times and Time Zones

All times are in EDT time to prevent confusion due to time zone crossing. See the ANE8817 flight status page for this flight to view local times or setup timezone preferences in your user account.

Time Position Orientation Groundspeed Altitude Reporting Facility
EDT Latitude Longitude Course Direction KTS MPH feet Rate Location/Type
Fri 02:22:15 AM 45.1474 7.4939 244° Southwest  Level Estimated
Fri 02:23:15 AM 45.1045 7.3696 244° Southwest  Level Estimated
Fri 02:24:15 AM 45.0616 7.2455 244° Southwest  Level Estimated
Fri 02:25:15 AM 45.0185 7.1215 244° Southwest  Level Estimated
Fri 02:26:15 AM 44.9752 6.9977 244° Southwest  Level Estimated
Fri 02:27:15 AM 44.9318 6.8742 244° Southwest  Level Estimated
Fri 02:28:15 AM 44.8883 6.7508 243° Southwest  Level Estimated
Fri 02:29:15 AM 44.8447 6.6276 243° Southwest  Level Estimated
Fri 02:30:15 AM 44.8009 6.5045 243° Southwest  Level Estimated
Fri 02:31:15 AM 44.7570 6.3817 243° Southwest  Level Estimated
Fri 02:32:15 AM 44.7129 6.2590 243° Southwest  Level Estimated
Fri 02:33:15 AM 44.6688 6.1366 243° Southwest  Level Estimated
Fri 02:34:15 AM 44.6245 6.0143 243° Southwest  Level Estimated
Fri 02:35:15 AM 44.5800 5.8922 243° Southwest  Level Estimated
Fri 02:36:15 AM 44.5355 5.7703 243° Southwest  Level Estimated
Fri 02:37:15 AM 44.4908 5.6486 243° Southwest  Level Estimated
Fri 02:38:15 AM 44.4459 5.5271 243° Southwest  Level Estimated
Fri 02:39:15 AM 44.4010 5.4057 243° Southwest  Level Estimated
Fri 02:40:15 AM 44.3559 5.2846 242° Southwest  Level Estimated
Fri 02:41:15 AM 44.3107 5.1636 242° Southwest  Level Estimated
Fri 02:42:15 AM 44.2654 5.0428 242° Southwest  Level Estimated
Fri 02:43:15 AM 44.2199 4.9222 242° Southwest  Level Estimated
Fri 02:44:15 AM 44.1743 4.8018 242° Southwest  Level Estimated
Fri 02:45:15 AM 44.1286 4.6816 242° Southwest  Level Estimated
Fri 02:46:15 AM 44.0827 4.5615 242° Southwest  Level Estimated
Fri 02:47:15 AM 44.0368 4.4417 242° Southwest  Level Estimated
Fri 02:48:15 AM 43.9907 4.3220 242° Southwest  Level Estimated
Fri 02:49:15 AM 43.9445 4.2025 242° Southwest  Level Estimated
Fri 02:50:15 AM 43.8981 4.0833 242° Southwest  Level Estimated
Fri 02:51:15 AM 43.8517 3.9641 242° Southwest  Level Estimated
Fri 02:52:15 AM 43.8051 3.8452 241° Southwest  Level Estimated
Fri 02:53:15 AM 43.7584 3.7265 241° Southwest  Level Estimated
Fri 02:54:15 AM 43.7115 3.6079 241° Southwest  Level Estimated
Fri 02:55:15 AM 43.6646 3.4896 241° Southwest  Level Estimated
Fri 02:56:15 AM 43.6175 3.3714 241° Southwest  Level Estimated
Fri 02:57:15 AM 43.5703 3.2534 241° Southwest  Level Estimated
Fri 02:58:15 AM 43.5230 3.1356 241° Southwest  Level Estimated
Fri 02:59:15 AM 43.4755 3.0179 241° Southwest  Level Estimated
Fri 03:00:15 AM 43.4280 2.9005 241° Southwest  Level Estimated
Fri 03:01:15 AM 43.3803 2.7832 241° Southwest  Level Estimated
Fri 03:02:15 AM 43.3325 2.6662 241° Southwest  Level Estimated
Fri 03:03:15 AM 43.2846 2.5493 241° Southwest  Level Estimated
Fri 03:04:15 AM 43.2365 2.4326 240° Southwest  Level Estimated
Fri 03:05:15 AM 43.1884 2.3161 240° Southwest  Level Estimated
Fri 03:06:15 AM 43.1401 2.1997 240° Southwest  Level Estimated
Fri 03:07:15 AM 43.0917 2.0836 240° Southwest  Level Estimated
Fri 03:08:15 AM 43.0432 1.9676 240° Southwest  Level Estimated
Fri 03:09:15 AM 42.9946 1.8518 240° Southwest  Level Estimated
Fri 03:10:15 AM 42.9458 1.7362 240° Southwest  Level Estimated
Fri 03:11:15 AM 42.8969 1.6208 240° Southwest  Level Estimated
Fri 03:12:15 AM 42.8480 1.5056 240° Southwest  Level Estimated
Fri 03:13:15 AM 42.7989 1.3905 240° Southwest  Level Estimated
Fri 03:14:15 AM 42.7497 1.2757 240° Southwest  Level Estimated
Fri 03:15:15 AM 42.7004 1.1610 240° Southwest  Level Estimated
Fri 03:16:15 AM 42.6509 1.0465 240° Southwest  Level Estimated
Fri 03:17:15 AM 42.6014 0.9322 239° Southwest  Level Estimated
Fri 03:18:15 AM 42.5517 0.8180 239° Southwest  Level Estimated
Fri 03:19:15 AM 42.5019 0.7041 239° Southwest  Level Estimated
Fri 03:20:15 AM 42.4520 0.5903 239° Southwest  Level Estimated
Fri 03:21:15 AM 42.4020 0.4767 239° Southwest  Level Estimated
Fri 03:22:15 AM 42.3519 0.3633 239° Southwest  Level Estimated
Fri 03:23:15 AM 42.3017 0.2500 239° Southwest  Level Estimated
Fri 03:24:15 AM 42.2514 0.1370 239° Southwest  Level Estimated
Fri 03:25:15 AM 42.2009 0.0241 239° Southwest  Level Estimated
Fri 03:26:15 AM 42.1503 -0.0886 239° Southwest  Level Estimated
Fri 03:27:15 AM 42.0997 -0.2011 239° Southwest  Level Estimated
Fri 03:28:15 AM 42.0489 -0.3134 239° Southwest  Level Estimated
Fri 03:29:15 AM 41.9980 -0.4256 239° Southwest  Level Estimated
Fri 03:30:15 AM 41.9470 -0.5375 238° Southwest  Level Estimated
Fri 03:31:15 AM 41.8959 -0.6493 238° Southwest  Level Estimated
Fri 03:32:15 AM 41.8447 -0.7610 238° Southwest  Level Estimated
Fri 03:33:15 AM 41.7934 -0.8724 238° Southwest  Level Estimated
Fri 03:34:15 AM 41.7419 -0.9837 238° Southwest  Level Estimated
Fri 03:35:15 AM 41.6904 -1.0947 238° Southwest  Level Estimated
Fri 03:36:15 AM 41.6387 -1.2056 238° Southwest  Level Estimated
Fri 03:37:15 AM 41.5870 -1.3163 238° Southwest  Level Estimated
Fri 03:38:15 AM 41.5351 -1.4269 238° Southwest  Level Estimated
Fri 03:39:15 AM 41.4832 -1.5373 238° Southwest  Level Estimated
Fri 03:40:15 AM 41.4311 -1.6475 238° Southwest  Level Estimated
Fri 03:41:15 AM 41.3789 -1.7575 238° Southwest  Level Estimated
Fri 03:42:15 AM 41.3267 -1.8673 238° Southwest  Level Estimated
Fri 03:43:15 AM 41.2743 -1.9770 238° Southwest  Level Estimated
Fri 03:44:15 AM 41.2218 -2.0865 237° Southwest  Level Estimated
Fri 03:45:15 AM 41.1692 -2.1958 237° Southwest  Level Estimated
Fri 03:46:15 AM 41.1165 -2.3049 237° Southwest  Level Estimated
Fri 03:47:15 AM 41.0637 -2.4139 237° Southwest  Level Estimated
Fri 03:48:15 AM 41.0108 -2.5227 237° Southwest  Level Estimated
Fri 03:49:15 AM 40.9578 -2.6313 237° Southwest  Level Estimated
Fri 03:50:15 AM 40.9047 -2.7397 237° Southwest  Level Estimated
Fri 03:51:15 AM 40.8515 -2.8480 237° Southwest  Level Estimated
Fri 03:52:15 AM 40.7982 -2.9561 237° Southwest  Level Estimated
Fri 03:53:15 AM 40.7448 -3.0640 237° Southwest  Level Estimated
Fri 03:54:15 AM 40.6913 -3.1717 237° Southwest  Level Estimated
Fri 03:55:15 AM 40.6377 -3.2793 237° Southwest  Level Estimated
Fri 03:56:15 AM 40.5840 -3.3867 237° Southwest  Level Estimated
Fri 03:57:15 AM 40.5302 -3.4939 237° Southwest  Level Estimated
Fri 03:58:15 AM 40.4763 -3.6009 56° Northeast  Level Estimated
Fri 03:59:15 AM 40.5302 -3.4939 237° Southwest  Level Estimated
Fri 04:00:15 AM 40.4763 -3.6009 56° Northeast  Level Estimated
Fri 04:01:15 AM 40.5302 -3.4939 237° Southwest  Level Estimated
Fri 04:02:15 AM 40.4763 -3.6009 56° Northeast  Level Estimated
Fri 04:03:15 AM 40.5302 -3.4939 237° Southwest  Level Estimated
Fri 04:04:15 AM 40.4763 -3.6009 56° Northeast  Level Estimated
Fri 04:05:15 AM 40.5302 -3.4939 237° Southwest  Level Estimated
Fri 04:06:15 AM 40.4763 -3.6009 56° Northeast  Level Estimated
Fri 04:07:15 AM 40.5302 -3.4939 237° Southwest  Level Estimated
Fri 04:08:15 AM 40.4763 -3.6009 56° Northeast  Level Estimated
Fri 04:09:15 AM 40.5302 -3.4939 237° Southwest  Level Estimated
Fri 04:10:15 AM 40.4763 -3.6009 56° Northeast  Level Estimated
Fri 04:11:15 AM 40.5302 -3.4939 237° Southwest  Level Estimated
Fri 04:12:15 AM 40.4763 -3.6009 56° Northeast  Level Estimated
Fri 04:13:15 AM 40.5302 -3.4939 56° Northeast  Level Estimated

Login

Don't have an account? Register now (free) for customized features, flight alerts, and more!